sensor_id;sensor_type;location;lat;lon;timestamp;P1;durP1;ratioP1;P2;durP2;ratioP2
69951;SDS011;60406;48.408;13.392;2022-10-31T00:00:13;37.08;;;20.70;;
69951;SDS011;60406;48.408;13.392;2022-10-31T00:05:14;43.72;;;19.73;;
69951;SDS011;60406;48.408;13.392;2022-10-31T00:10:15;41.50;;;19.17;;
69951;SDS011;60406;48.408;13.392;2022-10-31T00:15:16;58.90;;;16.98;;
69951;SDS011;60406;48.408;13.392;2022-10-31T00:20:17;167.30;;;21.33;;
69951;SDS011;60406;48.408;13.392;2022-10-31T00:25:18;162.80;;;18.23;;
69951;SDS011;60406;48.408;13.392;2022-10-31T00:30:19;126.13;;;18.83;;
69951;SDS011;60406;48.408;13.392;2022-10-31T00:35:20;92.72;;;18.65;;
69951;SDS011;60406;48.408;13.392;2022-10-31T00:40:21;100.82;;;19.08;;
69951;SDS011;60406;48.408;13.392;2022-10-31T00:45:22;235.23;;;22.48;;
69951;SDS011;60406;48.408;13.392;2022-10-31T00:50:22;326.25;;;23.73;;
69951;SDS011;60406;48.408;13.392;2022-10-31T00:55:23;324.33;;;22.92;;
69951;SDS011;60406;48.408;13.392;2022-10-31T01:00:24;63.83;;;21.63;;
69951;SDS011;60406;48.408;13.392;2022-10-31T01:05:25;135.23;;;20.95;;
69951;SDS011;60406;48.408;13.392;2022-10-31T01:10:26;170.55;;;22.75;;
69951;SDS011;60406;48.408;13.392;2022-10-31T01:15:27;223.07;;;22.40;;
69951;SDS011;60406;48.408;13.392;2022-10-31T01:20:28;164.05;;;23.73;;
69951;SDS011;60406;48.408;13.392;2022-10-31T01:25:29;86.28;;;23.48;;
69951;SDS011;60406;48.408;13.392;2022-10-31T01:30:30;92.07;;;19.48;;
69951;SDS011;60406;48.408;13.392;2022-10-31T01:35:31;128.25;;;19.92;;
69951;SDS011;60406;48.408;13.392;2022-10-31T01:40:32;104.32;;;20.67;;
69951;SDS011;60406;48.408;13.392;2022-10-31T01:45:32;82.80;;;19.98;;
69951;SDS011;60406;48.408;13.392;2022-10-31T01:50:34;74.13;;;18.80;;
69951;SDS011;60406;48.408;13.392;2022-10-31T01:55:40;67.30;;;17.98;;
69951;SDS011;60406;48.408;13.392;2022-10-31T02:00:43;65.10;;;17.92;;
69951;SDS011;60406;48.408;13.392;2022-10-31T02:05:46;40.17;;;15.82;;
69951;SDS011;60406;48.408;13.392;2022-10-31T02:10:47;37.13;;;15.50;;
69951;SDS011;60406;48.408;13.392;2022-10-31T02:15:52;41.55;;;15.55;;
69951;SDS011;60406;48.408;13.392;2022-10-31T02:26:08;77.50;;;19.30;;
69951;SDS011;60406;48.408;13.392;2022-10-31T02:31:22;65.80;;;18.73;;
69951;SDS011;60406;48.408;13.392;2022-10-31T02:42:17;52.63;;;18.83;;
69951;SDS011;60406;48.408;13.392;2022-10-31T02:47:24;87.18;;;20.77;;
69951;SDS011;60406;48.408;13.392;2022-10-31T02:52:28;127.57;;;22.65;;
69951;SDS011;60406;48.408;13.392;2022-10-31T02:57:33;73.50;;;22.58;;
69951;SDS011;60406;48.408;13.392;2022-10-31T03:08:01;62.50;;;19.58;;
69951;SDS011;60406;48.408;13.392;2022-10-31T03:23:50;99.75;;;21.88;;
69951;SDS011;60406;48.408;13.392;2022-10-31T03:28:54;150.05;;;22.42;;
69951;SDS011;60406;48.408;13.392;2022-10-31T03:33:58;89.00;;;19.38;;
69951;SDS011;60406;48.408;13.392;2022-10-31T03:39:01;113.10;;;20.55;;
69951;SDS011;60406;48.408;13.392;2022-10-31T03:44:04;63.22;;;17.55;;
69951;SDS011;60406;48.408;13.392;2022-10-31T03:49:08;58.35;;;16.75;;
69951;SDS011;60406;48.408;13.392;2022-10-31T04:05:15;198.10;;;17.10;;
69951;SDS011;60406;48.408;13.392;2022-10-31T04:10:17;230.35;;;18.75;;
69951;SDS011;60406;48.408;13.392;2022-10-31T04:15:19;259.08;;;21.02;;
69951;SDS011;60406;48.408;13.392;2022-10-31T04:20:29;235.00;;;19.05;;
69951;SDS011;60406;48.408;13.392;2022-10-31T04:25:31;228.50;;;18.38;;
69951;SDS011;60406;48.408;13.392;2022-10-31T04:30:32;116.90;;;16.50;;
69951;SDS011;60406;48.408;13.392;2022-10-31T04:35:33;104.70;;;17.05;;
69951;SDS011;60406;48.408;13.392;2022-10-31T04:40:34;166.32;;;17.73;;
69951;SDS011;60406;48.408;13.392;2022-10-31T04:45:35;143.10;;;15.65;;
69951;SDS011;60406;48.408;13.392;2022-10-31T04:50:36;106.30;;;14.52;;
69951;SDS011;60406;48.408;13.392;2022-10-31T04:55:36;192.60;;;18.05;;
69951;SDS011;60406;48.408;13.392;2022-10-31T05:00:37;89.13;;;14.93;;
69951;SDS011;60406;48.408;13.392;2022-10-31T05:05:38;141.05;;;16.50;;
69951;SDS011;60406;48.408;13.392;2022-10-31T05:10:39;109.35;;;16.23;;
69951;SDS011;60406;48.408;13.392;2022-10-31T05:15:40;72.47;;;17.42;;
69951;SDS011;60406;48.408;13.392;2022-10-31T05:20:41;72.50;;;16.02;;
69951;SDS011;60406;48.408;13.392;2022-10-31T05:25:42;41.90;;;15.43;;
69951;SDS011;60406;48.408;13.392;2022-10-31T05:30:43;75.20;;;16.92;;
69951;SDS011;60406;48.408;13.392;2022-10-31T05:35:43;81.13;;;15.80;;
69951;SDS011;60406;48.408;13.392;2022-10-31T05:40:44;81.15;;;16.33;;
69951;SDS011;60406;48.408;13.392;2022-10-31T05:45:45;49.25;;;15.40;;
69951;SDS011;60406;48.408;13.392;2022-10-31T05:50:47;113.03;;;18.63;;
69951;SDS011;60406;48.408;13.392;2022-10-31T05:55:48;138.55;;;18.58;;
69951;SDS011;60406;48.408;13.392;2022-10-31T06:00:49;142.82;;;21.15;;
69951;SDS011;60406;48.408;13.392;2022-10-31T06:05:50;79.78;;;19.08;;
69951;SDS011;60406;48.408;13.392;2022-10-31T06:10:50;153.00;;;18.58;;
69951;SDS011;60406;48.408;13.392;2022-10-31T06:15:51;132.43;;;18.30;;
69951;SDS011;60406;48.408;13.392;2022-10-31T06:20:52;140.70;;;16.83;;
69951;SDS011;60406;48.408;13.392;2022-10-31T06:25:53;125.95;;;14.45;;
69951;SDS011;60406;48.408;13.392;2022-10-31T06:30:54;167.27;;;16.33;;
69951;SDS011;60406;48.408;13.392;2022-10-31T06:35:55;144.00;;;16.10;;
69951;SDS011;60406;48.408;13.392;2022-10-31T06:40:56;224.13;;;18.15;;
69951;SDS011;60406;48.408;13.392;2022-10-31T06:45:57;172.63;;;16.00;;
69951;SDS011;60406;48.408;13.392;2022-10-31T06:50:58;152.95;;;14.77;;
69951;SDS011;60406;48.408;13.392;2022-10-31T06:55:59;194.98;;;15.52;;
69951;SDS011;60406;48.408;13.392;2022-10-31T07:01:00;108.55;;;14.52;;
69951;SDS011;60406;48.408;13.392;2022-10-31T07:06:01;40.10;;;12.70;;
69951;SDS011;60406;48.408;13.392;2022-10-31T07:11:02;68.68;;;12.88;;
69951;SDS011;60406;48.408;13.392;2022-10-31T07:16:03;76.22;;;10.90;;
69951;SDS011;60406;48.408;13.392;2022-10-31T07:21:05;62.85;;;10.90;;
69951;SDS011;60406;48.408;13.392;2022-10-31T07:26:06;64.50;;;10.40;;
69951;SDS011;60406;48.408;13.392;2022-10-31T07:31:07;85.05;;;9.98;;
69951;SDS011;60406;48.408;13.392;2022-10-31T07:36:07;41.17;;;9.70;;
69951;SDS011;60406;48.408;13.392;2022-10-31T07:41:08;44.25;;;10.60;;
69951;SDS011;60406;48.408;13.392;2022-10-31T07:46:09;59.00;;;11.90;;
69951;SDS011;60406;48.408;13.392;2022-10-31T07:51:10;162.20;;;13.48;;
69951;SDS011;60406;48.408;13.392;2022-10-31T07:56:11;119.68;;;11.77;;
69951;SDS011;60406;48.408;13.392;2022-10-31T08:01:12;63.97;;;12.00;;
69951;SDS011;60406;48.408;13.392;2022-10-31T08:06:13;21.45;;;11.13;;
69951;SDS011;60406;48.408;13.392;2022-10-31T08:11:13;56.88;;;12.40;;
69951;SDS011;60406;48.408;13.392;2022-10-31T08:16:14;60.03;;;11.82;;
69951;SDS011;60406;48.408;13.392;2022-10-31T08:21:15;136.13;;;13.77;;
69951;SDS011;60406;48.408;13.392;2022-10-31T08:26:16;63.38;;;12.13;;
69951;SDS011;60406;48.408;13.392;2022-10-31T08:31:17;171.43;;;13.27;;
69951;SDS011;60406;48.408;13.392;2022-10-31T08:36:18;206.45;;;15.02;;
69951;SDS011;60406;48.408;13.392;2022-10-31T08:41:22;144.65;;;14.25;;
69951;SDS011;60406;48.408;13.392;2022-10-31T08:46:23;231.77;;;17.70;;
69951;SDS011;60406;48.408;13.392;2022-10-31T08:51:23;117.32;;;15.65;;
69951;SDS011;60406;48.408;13.392;2022-10-31T08:56:24;100.22;;;12.15;;
69951;SDS011;60406;48.408;13.392;2022-10-31T09:01:25;320.80;;;19.42;;
69951;SDS011;60406;48.408;13.392;2022-10-31T09:06:26;240.88;;;17.02;;
69951;SDS011;60406;48.408;13.392;2022-10-31T09:11:27;179.80;;;14.75;;
69951;SDS011;60406;48.408;13.392;2022-10-31T09:16:30;84.20;;;14.38;;
69951;SDS011;60406;48.408;13.392;2022-10-31T09:21:31;42.20;;;12.20;;
69951;SDS011;60406;48.408;13.392;2022-10-31T09:26:33;89.05;;;13.88;;
69951;SDS011;60406;48.408;13.392;2022-10-31T09:31:34;83.88;;;14.10;;
69951;SDS011;60406;48.408;13.392;2022-10-31T09:36:35;106.90;;;15.13;;
69951;SDS011;60406;48.408;13.392;2022-10-31T09:52:19;68.80;;;18.40;;
69951;SDS011;60406;48.408;13.392;2022-10-31T09:57:41;36.85;;;23.23;;
69951;SDS011;60406;48.408;13.392;2022-10-31T10:02:44;42.83;;;18.58;;
69951;SDS011;60406;48.408;13.392;2022-10-31T10:13:26;45.55;;;17.85;;
69951;SDS011;60406;48.408;13.392;2022-10-31T10:24:02;75.40;;;18.25;;
69951;SDS011;60406;48.408;13.392;2022-10-31T10:34:29;41.38;;;18.92;;
69951;SDS011;60406;48.408;13.392;2022-10-31T10:39:46;30.02;;;20.42;;
69951;SDS011;60406;48.408;13.392;2022-10-31T10:44:50;28.70;;;20.73;;
69951;SDS011;60406;48.408;13.392;2022-10-31T10:49:51;36.97;;;21.67;;
69951;SDS011;60406;48.408;13.392;2022-10-31T11:00:18;29.75;;;22.08;;
69951;SDS011;60406;48.408;13.392;2022-10-31T11:05:25;31.55;;;20.50;;
69951;SDS011;60406;48.408;13.392;2022-10-31T11:10:29;26.17;;;19.60;;
69951;SDS011;60406;48.408;13.392;2022-10-31T11:15:31;23.13;;;17.38;;
69951;SDS011;60406;48.408;13.392;2022-10-31T11:20:35;22.58;;;18.35;;
69951;SDS011;60406;48.408;13.392;2022-10-31T11:25:36;21.88;;;18.20;;
69951;SDS011;60406;48.408;13.392;2022-10-31T11:30:47;17.05;;;15.27;;
69951;SDS011;60406;48.408;13.392;2022-10-31T11:35:50;13.80;;;12.50;;
69951;SDS011;60406;48.408;13.392;2022-10-31T11:46:13;14.70;;;13.20;;
69951;SDS011;60406;48.408;13.392;2022-10-31T11:51:21;20.10;;;12.15;;
69951;SDS011;60406;48.408;13.392;2022-10-31T11:56:23;14.18;;;11.93;;
69951;SDS011;60406;48.408;13.392;2022-10-31T12:01:26;12.13;;;10.90;;
69951;SDS011;60406;48.408;13.392;2022-10-31T12:06:29;24.02;;;11.50;;
69951;SDS011;60406;48.408;13.392;2022-10-31T12:11:42;10.90;;;9.80;;
69951;SDS011;60406;48.408;13.392;2022-10-31T12:17:35;16.65;;;11.10;;
69951;SDS011;60406;48.408;13.392;2022-10-31T12:22:20;13.50;;;10.98;;
69951;SDS011;60406;48.408;13.392;2022-10-31T12:27:48;19.17;;;11.40;;
69951;SDS011;60406;48.408;13.392;2022-10-31T12:49:38;10.88;;;9.70;;
69951;SDS011;60406;48.408;13.392;2022-10-31T12:59:53;17.80;;;9.93;;
69951;SDS011;60406;48.408;13.392;2022-10-31T13:05:40;19.55;;;9.95;;
69951;SDS011;60406;48.408;13.392;2022-10-31T13:15:46;13.25;;;9.48;;
69951;SDS011;60406;48.408;13.392;2022-10-31T13:20:48;21.05;;;10.20;;
69951;SDS011;60406;48.408;13.392;2022-10-31T13:25:52;19.63;;;10.50;;
69951;SDS011;60406;48.408;13.392;2022-10-31T13:30:54;15.25;;;9.43;;
69951;SDS011;60406;48.408;13.392;2022-10-31T13:46:25;19.30;;;9.77;;
69951;SDS011;60406;48.408;13.392;2022-10-31T13:51:33;16.92;;;9.68;;
69951;SDS011;60406;48.408;13.392;2022-10-31T13:56:34;16.85;;;9.60;;
69951;SDS011;60406;48.408;13.392;2022-10-31T14:01:35;20.70;;;10.45;;
69951;SDS011;60406;48.408;13.392;2022-10-31T14:11:46;17.58;;;11.27;;
69951;SDS011;60406;48.408;13.392;2022-10-31T14:16:52;16.50;;;11.18;;
69951;SDS011;60406;48.408;13.392;2022-10-31T14:21:55;23.52;;;13.75;;
69951;SDS011;60406;48.408;13.392;2022-10-31T14:26:57;24.98;;;13.70;;
69951;SDS011;60406;48.408;13.392;2022-10-31T14:48:37;31.92;;;19.02;;
69951;SDS011;60406;48.408;13.392;2022-10-31T15:03:48;37.13;;;24.65;;
69951;SDS011;60406;48.408;13.392;2022-10-31T15:08:51;36.78;;;24.67;;
69951;SDS011;60406;48.408;13.392;2022-10-31T15:13:55;38.80;;;24.33;;
69951;SDS011;60406;48.408;13.392;2022-10-31T15:19:07;48.72;;;26.48;;
69951;SDS011;60406;48.408;13.392;2022-10-31T15:24:11;35.10;;;25.50;;
69951;SDS011;60406;48.408;13.392;2022-10-31T15:29:14;42.88;;;25.15;;
69951;SDS011;60406;48.408;13.392;2022-10-31T15:34:18;33.22;;;24.88;;
69951;SDS011;60406;48.408;13.392;2022-10-31T15:39:31;38.97;;;26.73;;
69951;SDS011;60406;48.408;13.392;2022-10-31T15:44:36;38.42;;;25.65;;
69951;SDS011;60406;48.408;13.392;2022-10-31T15:49:41;34.08;;;26.20;;
69951;SDS011;60406;48.408;13.392;2022-10-31T15:54:48;38.53;;;26.48;;
69951;SDS011;60406;48.408;13.392;2022-10-31T15:59:50;47.00;;;30.17;;
69951;SDS011;60406;48.408;13.392;2022-10-31T16:04:59;45.60;;;30.67;;
69951;SDS011;60406;48.408;13.392;2022-10-31T16:10:01;40.83;;;31.50;;
69951;SDS011;60406;48.408;13.392;2022-10-31T16:15:04;52.83;;;34.17;;
69951;SDS011;60406;48.408;13.392;2022-10-31T16:20:05;48.58;;;32.17;;
69951;SDS011;60406;48.408;13.392;2022-10-31T16:30:37;51.10;;;34.53;;
69951;SDS011;60406;48.408;13.392;2022-10-31T16:35:39;57.70;;;35.38;;
69951;SDS011;60406;48.408;13.392;2022-10-31T16:40:40;48.42;;;33.53;;
69951;SDS011;60406;48.408;13.392;2022-10-31T16:45:46;45.38;;;34.30;;
69951;SDS011;60406;48.408;13.392;2022-10-31T16:50:48;52.35;;;36.13;;
69951;SDS011;60406;48.408;13.392;2022-10-31T16:55:56;50.40;;;35.22;;
69951;SDS011;60406;48.408;13.392;2022-10-31T17:00:58;50.38;;;36.72;;
69951;SDS011;60406;48.408;13.392;2022-10-31T17:06:02;54.33;;;38.25;;
69951;SDS011;60406;48.408;13.392;2022-10-31T17:11:03;55.28;;;37.92;;
69951;SDS011;60406;48.408;13.392;2022-10-31T17:16:05;68.90;;;41.42;;
69951;SDS011;60406;48.408;13.392;2022-10-31T17:21:09;49.53;;;36.65;;
69951;SDS011;60406;48.408;13.392;2022-10-31T17:26:19;51.30;;;35.50;;
69951;SDS011;60406;48.408;13.392;2022-10-31T17:31:25;57.25;;;36.47;;
69951;SDS011;60406;48.408;13.392;2022-10-31T17:36:28;51.83;;;35.45;;
69951;SDS011;60406;48.408;13.392;2022-10-31T17:41:29;48.97;;;36.10;;
69951;SDS011;60406;48.408;13.392;2022-10-31T17:46:30;54.63;;;33.92;;
69951;SDS011;60406;48.408;13.392;2022-10-31T17:51:31;51.63;;;34.47;;
69951;SDS011;60406;48.408;13.392;2022-10-31T17:56:32;47.35;;;32.47;;
69951;SDS011;60406;48.408;13.392;2022-10-31T18:01:32;50.95;;;33.05;;
69951;SDS011;60406;48.408;13.392;2022-10-31T18:06:33;47.53;;;32.80;;
69951;SDS011;60406;48.408;13.392;2022-10-31T18:11:34;47.45;;;32.15;;
69951;SDS011;60406;48.408;13.392;2022-10-31T18:16:35;49.45;;;34.28;;
69951;SDS011;60406;48.408;13.392;2022-10-31T18:21:36;54.03;;;34.92;;
69951;SDS011;60406;48.408;13.392;2022-10-31T18:26:37;47.67;;;32.80;;
69951;SDS011;60406;48.408;13.392;2022-10-31T18:31:38;52.65;;;34.05;;
69951;SDS011;60406;48.408;13.392;2022-10-31T18:36:39;56.15;;;35.78;;
69951;SDS011;60406;48.408;13.392;2022-10-31T18:41:40;53.97;;;36.63;;
69951;SDS011;60406;48.408;13.392;2022-10-31T18:46:41;63.40;;;38.08;;
69951;SDS011;60406;48.408;13.392;2022-10-31T18:51:42;64.82;;;36.95;;
69951;SDS011;60406;48.408;13.392;2022-10-31T18:56:43;52.45;;;37.83;;
69951;SDS011;60406;48.408;13.392;2022-10-31T19:01:44;55.08;;;37.13;;
69951;SDS011;60406;48.408;13.392;2022-10-31T19:06:44;49.35;;;35.22;;
69951;SDS011;60406;48.408;13.392;2022-10-31T19:11:45;54.58;;;35.55;;
69951;SDS011;60406;48.408;13.392;2022-10-31T19:16:46;49.55;;;37.55;;
69951;SDS011;60406;48.408;13.392;2022-10-31T19:21:47;54.78;;;38.25;;
69951;SDS011;60406;48.408;13.392;2022-10-31T19:26:48;59.70;;;38.17;;
69951;SDS011;60406;48.408;13.392;2022-10-31T19:31:49;53.13;;;36.95;;
69951;SDS011;60406;48.408;13.392;2022-10-31T19:36:50;60.42;;;40.28;;
69951;SDS011;60406;48.408;13.392;2022-10-31T19:41:51;63.33;;;40.17;;
69951;SDS011;60406;48.408;13.392;2022-10-31T19:46:51;58.00;;;40.95;;
69951;SDS011;60406;48.408;13.392;2022-10-31T19:51:52;63.15;;;40.88;;
69951;SDS011;60406;48.408;13.392;2022-10-31T19:56:53;61.42;;;40.80;;
69951;SDS011;60406;48.408;13.392;2022-10-31T20:01:54;59.53;;;41.38;;
69951;SDS011;60406;48.408;13.392;2022-10-31T20:06:55;61.17;;;41.30;;
69951;SDS011;60406;48.408;13.392;2022-10-31T20:11:56;58.67;;;40.45;;
69951;SDS011;60406;48.408;13.392;2022-10-31T20:16:57;58.15;;;38.67;;
69951;SDS011;60406;48.408;13.392;2022-10-31T20:21:57;56.30;;;38.88;;
69951;SDS011;60406;48.408;13.392;2022-10-31T20:26:58;58.85;;;38.53;;
69951;SDS011;60406;48.408;13.392;2022-10-31T20:31:59;51.05;;;36.92;;
69951;SDS011;60406;48.408;13.392;2022-10-31T20:37:00;58.63;;;36.70;;
69951;SDS011;60406;48.408;13.392;2022-10-31T20:42:02;47.60;;;35.55;;
69951;SDS011;60406;48.408;13.392;2022-10-31T20:47:03;44.65;;;32.03;;
69951;SDS011;60406;48.408;13.392;2022-10-31T20:52:04;41.72;;;33.22;;
69951;SDS011;60406;48.408;13.392;2022-10-31T20:57:05;43.70;;;32.20;;
69951;SDS011;60406;48.408;13.392;2022-10-31T21:02:05;43.08;;;31.65;;
69951;SDS011;60406;48.408;13.392;2022-10-31T21:07:06;41.88;;;32.65;;
69951;SDS011;60406;48.408;13.392;2022-10-31T21:12:07;41.50;;;29.77;;
69951;SDS011;60406;48.408;13.392;2022-10-31T21:17:08;36.92;;;29.10;;
69951;SDS011;60406;48.408;13.392;2022-10-31T21:22:09;38.15;;;29.00;;
69951;SDS011;60406;48.408;13.392;2022-10-31T21:27:10;41.75;;;30.48;;
69951;SDS011;60406;48.408;13.392;2022-10-31T21:32:11;39.78;;;29.38;;
69951;SDS011;60406;48.408;13.392;2022-10-31T21:37:11;40.60;;;29.63;;
69951;SDS011;60406;48.408;13.392;2022-10-31T21:42:12;31.00;;;24.77;;
69951;SDS011;60406;48.408;13.392;2022-10-31T21:47:13;35.90;;;24.40;;
69951;SDS011;60406;48.408;13.392;2022-10-31T21:52:14;33.45;;;24.88;;
69951;SDS011;60406;48.408;13.392;2022-10-31T21:57:15;30.08;;;23.05;;
69951;SDS011;60406;48.408;13.392;2022-10-31T22:02:16;29.73;;;24.73;;
69951;SDS011;60406;48.408;13.392;2022-10-31T22:07:17;32.50;;;23.13;;
69951;SDS011;60406;48.408;13.392;2022-10-31T22:12:18;31.92;;;23.27;;
69951;SDS011;60406;48.408;13.392;2022-10-31T22:17:19;29.13;;;22.27;;
69951;SDS011;60406;48.408;13.392;2022-10-31T22:22:20;31.73;;;25.27;;
69951;SDS011;60406;48.408;13.392;2022-10-31T22:27:21;37.00;;;24.02;;
69951;SDS011;60406;48.408;13.392;2022-10-31T22:32:21;35.30;;;22.60;;
69951;SDS011;60406;48.408;13.392;2022-10-31T22:37:22;29.60;;;22.83;;
69951;SDS011;60406;48.408;13.392;2022-10-31T22:42:23;27.98;;;22.60;;
69951;SDS011;60406;48.408;13.392;2022-10-31T22:47:24;25.70;;;21.60;;
69951;SDS011;60406;48.408;13.392;2022-10-31T22:52:25;28.98;;;23.02;;
69951;SDS011;60406;48.408;13.392;2022-10-31T22:57:26;34.53;;;22.33;;
69951;SDS011;60406;48.408;13.392;2022-10-31T23:02:27;35.33;;;22.95;;
69951;SDS011;60406;48.408;13.392;2022-10-31T23:07:27;30.17;;;22.80;;
69951;SDS011;60406;48.408;13.392;2022-10-31T23:12:28;31.70;;;22.67;;
69951;SDS011;60406;48.408;13.392;2022-10-31T23:17:29;33.85;;;24.25;;
69951;SDS011;60406;48.408;13.392;2022-10-31T23:22:30;34.47;;;23.25;;
69951;SDS011;60406;48.408;13.392;2022-10-31T23:27:31;31.98;;;22.52;;
69951;SDS011;60406;48.408;13.392;2022-10-31T23:32:33;30.83;;;22.80;;
69951;SDS011;60406;48.408;13.392;2022-10-31T23:37:36;35.13;;;24.08;;
69951;SDS011;60406;48.408;13.392;2022-10-31T23:42:37;31.80;;;23.20;;
69951;SDS011;60406;48.408;13.392;2022-10-31T23:47:38;32.72;;;23.48;;
69951;SDS011;60406;48.408;13.392;2022-10-31T23:52:39;33.35;;;23.60;;
69951;SDS011;60406;48.408;13.392;2022-10-31T23:57:39;31.80;;;24.17;;
